sensor_id;sensor_type;location;lat;lon;timestamp;P1;durP1;ratioP1;P2;durP2;ratioP2
7162;SDS011;3623;47.098;15.446;2023-07-24T00:00:32;9.73;;;8.83;;
7162;SDS011;3623;47.098;15.446;2023-07-24T00:03:01;9.63;;;8.73;;
7162;SDS011;3623;47.098;15.446;2023-07-24T00:05:29;12.17;;;8.20;;
7162;SDS011;3623;47.098;15.446;2023-07-24T00:07:57;9.67;;;8.67;;
7162;SDS011;3623;47.098;15.446;2023-07-24T00:10:25;10.90;;;8.23;;
7162;SDS011;3623;47.098;15.446;2023-07-24T00:12:52;11.53;;;9.43;;
7162;SDS011;3623;47.098;15.446;2023-07-24T00:15:19;9.90;;;8.60;;
7162;SDS011;3623;47.098;15.446;2023-07-24T00:17:47;10.10;;;9.17;;
7162;SDS011;3623;47.098;15.446;2023-07-24T00:20:14;10.83;;;9.70;;
7162;SDS011;3623;47.098;15.446;2023-07-24T00:22:44;9.70;;;8.83;;
7162;SDS011;3623;47.098;15.446;2023-07-24T00:25:13;10.70;;;8.43;;
7162;SDS011;3623;47.098;15.446;2023-07-24T00:27:42;10.50;;;9.60;;
7162;SDS011;3623;47.098;15.446;2023-07-24T00:30:09;10.43;;;9.50;;
7162;SDS011;3623;47.098;15.446;2023-07-24T00:32:37;8.93;;;8.03;;
7162;SDS011;3623;47.098;15.446;2023-07-24T00:35:04;13.93;;;10.53;;
7162;SDS011;3623;47.098;15.446;2023-07-24T00:37:32;9.97;;;8.97;;
7162;SDS011;3623;47.098;15.446;2023-07-24T00:40:00;12.20;;;9.00;;
7162;SDS011;3623;47.098;15.446;2023-07-24T00:42:31;9.63;;;8.63;;
7162;SDS011;3623;47.098;15.446;2023-07-24T00:44:59;10.93;;;9.00;;
7162;SDS011;3623;47.098;15.446;2023-07-24T00:47:26;10.43;;;9.43;;
7162;SDS011;3623;47.098;15.446;2023-07-24T00:49:57;10.23;;;8.80;;
7162;SDS011;3623;47.098;15.446;2023-07-24T00:52:24;11.53;;;9.37;;
7162;SDS011;3623;47.098;15.446;2023-07-24T00:54:52;9.40;;;8.53;;
7162;SDS011;3623;47.098;15.446;2023-07-24T00:57:23;10.10;;;9.10;;
7162;SDS011;3623;47.098;15.446;2023-07-24T00:59:51;10.03;;;9.13;;
7162;SDS011;3623;47.098;15.446;2023-07-24T01:02:19;12.20;;;9.47;;
7162;SDS011;3623;47.098;15.446;2023-07-24T01:04:46;10.57;;;9.57;;
7162;SDS011;3623;47.098;15.446;2023-07-24T01:07:14;10.83;;;9.03;;
7162;SDS011;3623;47.098;15.446;2023-07-24T01:09:43;12.17;;;9.33;;
7162;SDS011;3623;47.098;15.446;2023-07-24T01:12:13;11.13;;;9.80;;
7162;SDS011;3623;47.098;15.446;2023-07-24T01:14:47;12.00;;;9.70;;
7162;SDS011;3623;47.098;15.446;2023-07-24T01:17:20;9.60;;;8.70;;
7162;SDS011;3623;47.098;15.446;2023-07-24T01:19:51;12.93;;;9.17;;
7162;SDS011;3623;47.098;15.446;2023-07-24T01:22:24;11.50;;;10.40;;
7162;SDS011;3623;47.098;15.446;2023-07-24T01:25:04;10.17;;;8.93;;
7162;SDS011;3623;47.098;15.446;2023-07-24T01:27:43;13.53;;;11.83;;
7162;SDS011;3623;47.098;15.446;2023-07-24T01:30:13;11.43;;;9.93;;
7162;SDS011;3623;47.098;15.446;2023-07-24T01:32:42;12.33;;;11.03;;
7162;SDS011;3623;47.098;15.446;2023-07-24T01:35:14;12.53;;;9.80;;
7162;SDS011;3623;47.098;15.446;2023-07-24T01:37:41;11.77;;;9.70;;
7162;SDS011;3623;47.098;15.446;2023-07-24T01:40:10;10.10;;;9.27;;
7162;SDS011;3623;47.098;15.446;2023-07-24T01:42:38;10.63;;;9.63;;
7162;SDS011;3623;47.098;15.446;2023-07-24T01:45:10;12.53;;;10.37;;
7162;SDS011;3623;47.098;15.446;2023-07-24T01:47:46;13.27;;;11.60;;
7162;SDS011;3623;47.098;15.446;2023-07-24T01:50:30;12.40;;;11.13;;
7162;SDS011;3623;47.098;15.446;2023-07-24T01:52:57;12.77;;;10.70;;
7162;SDS011;3623;47.098;15.446;2023-07-24T01:55:26;11.70;;;10.50;;
7162;SDS011;3623;47.098;15.446;2023-07-24T01:57:55;12.00;;;10.90;;
7162;SDS011;3623;47.098;15.446;2023-07-24T02:00:54;12.03;;;10.73;;
7162;SDS011;3623;47.098;15.446;2023-07-24T02:03:24;12.50;;;11.20;;
7162;SDS011;3623;47.098;15.446;2023-07-24T02:05:55;12.67;;;10.67;;
7162;SDS011;3623;47.098;15.446;2023-07-24T02:08:22;11.27;;;10.10;;
7162;SDS011;3623;47.098;15.446;2023-07-24T02:11:30;15.47;;;11.63;;
7162;SDS011;3623;47.098;15.446;2023-07-24T02:13:59;13.33;;;10.90;;
7162;SDS011;3623;47.098;15.446;2023-07-24T02:16:37;12.97;;;11.60;;
7162;SDS011;3623;47.098;15.446;2023-07-24T02:19:07;12.30;;;10.57;;
7162;SDS011;3623;47.098;15.446;2023-07-24T02:21:34;13.40;;;11.40;;
7162;SDS011;3623;47.098;15.446;2023-07-24T02:24:01;12.00;;;10.90;;
7162;SDS011;3623;47.098;15.446;2023-07-24T02:26:28;13.77;;;12.03;;
7162;SDS011;3623;47.098;15.446;2023-07-24T02:28:55;14.67;;;11.40;;
7162;SDS011;3623;47.098;15.446;2023-07-24T02:31:25;11.57;;;10.47;;
7162;SDS011;3623;47.098;15.446;2023-07-24T02:33:52;11.77;;;10.63;;
7162;SDS011;3623;47.098;15.446;2023-07-24T02:36:21;12.30;;;10.83;;
7162;SDS011;3623;47.098;15.446;2023-07-24T02:38:48;12.70;;;11.50;;
7162;SDS011;3623;47.098;15.446;2023-07-24T02:41:16;13.07;;;11.60;;
7162;SDS011;3623;47.098;15.446;2023-07-24T02:43:44;12.10;;;10.90;;
7162;SDS011;3623;47.098;15.446;2023-07-24T02:46:11;16.30;;;12.40;;
7162;SDS011;3623;47.098;15.446;2023-07-24T02:51:36;12.27;;;11.03;;
7162;SDS011;3623;47.098;15.446;2023-07-24T02:56:35;12.47;;;10.70;;
7162;SDS011;3623;47.098;15.446;2023-07-24T02:59:05;12.43;;;11.17;;
7162;SDS011;3623;47.098;15.446;2023-07-24T03:01:32;11.70;;;10.63;;
7162;SDS011;3623;47.098;15.446;2023-07-24T03:04:01;12.93;;;11.30;;
7162;SDS011;3623;47.098;15.446;2023-07-24T03:09:08;11.93;;;10.83;;
7162;SDS011;3623;47.098;15.446;2023-07-24T03:11:35;12.93;;;11.63;;
7162;SDS011;3623;47.098;15.446;2023-07-24T03:14:09;12.57;;;11.37;;
7162;SDS011;3623;47.098;15.446;2023-07-24T03:16:45;12.80;;;10.40;;
7162;SDS011;3623;47.098;15.446;2023-07-24T03:19:30;14.47;;;11.50;;
7162;SDS011;3623;47.098;15.446;2023-07-24T03:22:00;14.10;;;12.60;;
7162;SDS011;3623;47.098;15.446;2023-07-24T03:24:31;15.63;;;11.00;;
7162;SDS011;3623;47.098;15.446;2023-07-24T03:27:19;12.60;;;11.30;;
7162;SDS011;3623;47.098;15.446;2023-07-24T03:29:52;15.20;;;12.13;;
7162;SDS011;3623;47.098;15.446;2023-07-24T03:32:31;14.93;;;11.03;;
7162;SDS011;3623;47.098;15.446;2023-07-24T03:35:09;12.37;;;10.97;;
7162;SDS011;3623;47.098;15.446;2023-07-24T03:37:39;14.10;;;10.90;;
7162;SDS011;3623;47.098;15.446;2023-07-24T03:42:38;12.00;;;10.80;;
7162;SDS011;3623;47.098;15.446;2023-07-24T03:45:26;11.77;;;10.57;;
7162;SDS011;3623;47.098;15.446;2023-07-24T03:47:54;11.83;;;10.70;;
7162;SDS011;3623;47.098;15.446;2023-07-24T03:50:30;12.00;;;10.80;;
7162;SDS011;3623;47.098;15.446;2023-07-24T03:53:23;14.20;;;10.60;;
7162;SDS011;3623;47.098;15.446;2023-07-24T03:56:00;12.73;;;10.50;;
7162;SDS011;3623;47.098;15.446;2023-07-24T03:58:33;13.70;;;11.47;;
7162;SDS011;3623;47.098;15.446;2023-07-24T04:01:03;12.40;;;10.60;;
7162;SDS011;3623;47.098;15.446;2023-07-24T04:03:30;11.17;;;10.17;;
7162;SDS011;3623;47.098;15.446;2023-07-24T04:05:59;11.73;;;10.53;;
7162;SDS011;3623;47.098;15.446;2023-07-24T04:08:27;14.50;;;11.40;;
7162;SDS011;3623;47.098;15.446;2023-07-24T04:10:54;11.47;;;10.37;;
7162;SDS011;3623;47.098;15.446;2023-07-24T04:13:38;12.20;;;10.10;;
7162;SDS011;3623;47.098;15.446;2023-07-24T04:16:15;14.20;;;11.00;;
7162;SDS011;3623;47.098;15.446;2023-07-24T04:18:48;10.83;;;9.83;;
7162;SDS011;3623;47.098;15.446;2023-07-24T04:21:20;13.00;;;9.70;;
7162;SDS011;3623;47.098;15.446;2023-07-24T04:27:04;15.23;;;9.50;;
7162;SDS011;3623;47.098;15.446;2023-07-24T04:29:32;11.80;;;10.47;;
7162;SDS011;3623;47.098;15.446;2023-07-24T04:31:59;10.60;;;9.60;;
7162;SDS011;3623;47.098;15.446;2023-07-24T04:34:29;11.27;;;10.17;;
7162;SDS011;3623;47.098;15.446;2023-07-24T04:36:59;12.43;;;10.43;;
7162;SDS011;3623;47.098;15.446;2023-07-24T04:39:26;11.47;;;10.27;;
7162;SDS011;3623;47.098;15.446;2023-07-24T04:41:53;11.30;;;9.90;;
7162;SDS011;3623;47.098;15.446;2023-07-24T04:44:21;14.00;;;11.00;;
7162;SDS011;3623;47.098;15.446;2023-07-24T04:46:48;11.57;;;10.40;;
7162;SDS011;3623;47.098;15.446;2023-07-24T04:49:20;11.67;;;10.40;;
7162;SDS011;3623;47.098;15.446;2023-07-24T04:51:48;11.83;;;10.43;;
7162;SDS011;3623;47.098;15.446;2023-07-24T04:54:17;11.40;;;10.23;;
7162;SDS011;3623;47.098;15.446;2023-07-24T04:57:01;9.57;;;8.63;;
7162;SDS011;3623;47.098;15.446;2023-07-24T04:59:29;10.60;;;9.60;;
7162;SDS011;3623;47.098;15.446;2023-07-24T05:01:57;15.13;;;10.00;;
7162;SDS011;3623;47.098;15.446;2023-07-24T05:04:24;14.67;;;10.47;;
7162;SDS011;3623;47.098;15.446;2023-07-24T05:09:25;11.40;;;10.30;;
7162;SDS011;3623;47.098;15.446;2023-07-24T05:11:52;9.50;;;8.63;;
7162;SDS011;3623;47.098;15.446;2023-07-24T05:14:31;11.23;;;9.07;;
7162;SDS011;3623;47.098;15.446;2023-07-24T05:16:59;14.00;;;10.50;;
7162;SDS011;3623;47.098;15.446;2023-07-24T05:19:26;11.60;;;9.10;;
7162;SDS011;3623;47.098;15.446;2023-07-24T05:21:53;12.03;;;9.43;;
7162;SDS011;3623;47.098;15.446;2023-07-24T05:24:21;11.77;;;9.50;;
7162;SDS011;3623;47.098;15.446;2023-07-24T05:26:50;11.67;;;9.63;;
7162;SDS011;3623;47.098;15.446;2023-07-24T05:29:18;10.20;;;9.30;;
7162;SDS011;3623;47.098;15.446;2023-07-24T05:31:45;10.63;;;9.63;;
7162;SDS011;3623;47.098;15.446;2023-07-24T05:34:13;10.67;;;8.90;;
7162;SDS011;3623;47.098;15.446;2023-07-24T05:36:40;10.17;;;8.70;;
7162;SDS011;3623;47.098;15.446;2023-07-24T05:39:07;10.47;;;8.70;;
7162;SDS011;3623;47.098;15.446;2023-07-24T05:41:34;12.23;;;9.57;;
7162;SDS011;3623;47.098;15.446;2023-07-24T05:44:04;10.50;;;9.60;;
7162;SDS011;3623;47.098;15.446;2023-07-24T05:46:34;9.77;;;8.47;;
7162;SDS011;3623;47.098;15.446;2023-07-24T05:49:02;13.57;;;9.10;;
7162;SDS011;3623;47.098;15.446;2023-07-24T05:51:30;11.33;;;9.90;;
7162;SDS011;3623;47.098;15.446;2023-07-24T05:54:23;9.53;;;8.53;;
7162;SDS011;3623;47.098;15.446;2023-07-24T05:56:51;9.60;;;8.70;;
7162;SDS011;3623;47.098;15.446;2023-07-24T05:59:20;13.87;;;9.60;;
7162;SDS011;3623;47.098;15.446;2023-07-24T06:01:48;13.27;;;8.47;;
7162;SDS011;3623;47.098;15.446;2023-07-24T06:04:15;9.87;;;9.00;;
7162;SDS011;3623;47.098;15.446;2023-07-24T06:06:43;10.33;;;9.17;;
7162;SDS011;3623;47.098;15.446;2023-07-24T06:09:10;10.40;;;9.40;;
7162;SDS011;3623;47.098;15.446;2023-07-24T06:11:38;9.30;;;7.90;;
7162;SDS011;3623;47.098;15.446;2023-07-24T06:14:06;11.17;;;9.17;;
7162;SDS011;3623;47.098;15.446;2023-07-24T06:16:35;11.30;;;9.70;;
7162;SDS011;3623;47.098;15.446;2023-07-24T06:19:02;10.90;;;9.70;;
7162;SDS011;3623;47.098;15.446;2023-07-24T06:21:29;10.30;;;9.30;;
7162;SDS011;3623;47.098;15.446;2023-07-24T06:23:56;11.00;;;8.07;;
7162;SDS011;3623;47.098;15.446;2023-07-24T06:26:24;12.90;;;10.13;;
7162;SDS011;3623;47.098;15.446;2023-07-24T06:28:51;10.53;;;9.43;;
7162;SDS011;3623;47.098;15.446;2023-07-24T06:31:18;9.23;;;8.23;;
7162;SDS011;3623;47.098;15.446;2023-07-24T06:33:47;9.57;;;8.77;;
7162;SDS011;3623;47.098;15.446;2023-07-24T06:36:14;10.80;;;9.30;;
7162;SDS011;3623;47.098;15.446;2023-07-24T06:38:42;10.50;;;8.77;;
7162;SDS011;3623;47.098;15.446;2023-07-24T06:41:12;9.87;;;8.87;;
7162;SDS011;3623;47.098;15.446;2023-07-24T06:44:12;8.57;;;7.63;;
7162;SDS011;3623;47.098;15.446;2023-07-24T06:46:40;9.80;;;8.80;;
7162;SDS011;3623;47.098;15.446;2023-07-24T06:49:08;10.33;;;8.90;;
7162;SDS011;3623;47.098;15.446;2023-07-24T06:51:36;10.07;;;9.07;;
7162;SDS011;3623;47.098;15.446;2023-07-24T06:54:03;12.27;;;8.90;;
7162;SDS011;3623;47.098;15.446;2023-07-24T06:56:31;9.60;;;8.60;;
7162;SDS011;3623;47.098;15.446;2023-07-24T06:59:33;12.57;;;8.87;;
7162;SDS011;3623;47.098;15.446;2023-07-24T07:02:00;9.90;;;8.70;;
7162;SDS011;3623;47.098;15.446;2023-07-24T07:04:49;11.20;;;9.17;;
7162;SDS011;3623;47.098;15.446;2023-07-24T07:07:21;10.23;;;9.20;;
7162;SDS011;3623;47.098;15.446;2023-07-24T07:09:48;10.93;;;9.30;;
7162;SDS011;3623;47.098;15.446;2023-07-24T07:12:15;9.33;;;8.27;;
7162;SDS011;3623;47.098;15.446;2023-07-24T07:14:43;11.10;;;9.10;;
7162;SDS011;3623;47.098;15.446;2023-07-24T07:17:10;12.23;;;9.73;;
7162;SDS011;3623;47.098;15.446;2023-07-24T07:19:38;10.13;;;9.10;;
7162;SDS011;3623;47.098;15.446;2023-07-24T07:22:10;9.03;;;8.20;;
7162;SDS011;3623;47.098;15.446;2023-07-24T07:24:38;10.97;;;9.90;;
7162;SDS011;3623;47.098;15.446;2023-07-24T07:27:05;9.70;;;8.37;;
7162;SDS011;3623;47.098;15.446;2023-07-24T07:29:33;9.27;;;8.47;;
7162;SDS011;3623;47.098;15.446;2023-07-24T07:32:00;9.70;;;8.80;;
7162;SDS011;3623;47.098;15.446;2023-07-24T07:34:28;11.17;;;8.87;;
7162;SDS011;3623;47.098;15.446;2023-07-24T07:36:56;18.53;;;9.10;;
7162;SDS011;3623;47.098;15.446;2023-07-24T07:39:26;10.00;;;8.93;;
7162;SDS011;3623;47.098;15.446;2023-07-24T07:41:53;9.57;;;8.57;;
7162;SDS011;3623;47.098;15.446;2023-07-24T07:44:21;9.93;;;8.97;;
7162;SDS011;3623;47.098;15.446;2023-07-24T07:46:48;9.37;;;8.53;;
7162;SDS011;3623;47.098;15.446;2023-07-24T07:49:17;8.73;;;7.93;;
7162;SDS011;3623;47.098;15.446;2023-07-24T07:51:44;8.90;;;8.13;;
7162;SDS011;3623;47.098;15.446;2023-07-24T07:54:11;10.80;;;9.70;;
7162;SDS011;3623;47.098;15.446;2023-07-24T07:56:40;14.43;;;9.40;;
7162;SDS011;3623;47.098;15.446;2023-07-24T07:59:08;10.23;;;8.37;;
7162;SDS011;3623;47.098;15.446;2023-07-24T08:01:36;9.93;;;7.53;;
7162;SDS011;3623;47.098;15.446;2023-07-24T08:04:04;9.57;;;8.40;;
7162;SDS011;3623;47.098;15.446;2023-07-24T08:09:05;8.80;;;8.00;;
7162;SDS011;3623;47.098;15.446;2023-07-24T08:11:33;9.07;;;8.27;;
7162;SDS011;3623;47.098;15.446;2023-07-24T08:14:02;10.73;;;9.70;;
7162;SDS011;3623;47.098;15.446;2023-07-24T08:16:30;9.23;;;8.33;;
7162;SDS011;3623;47.098;15.446;2023-07-24T08:18:58;11.23;;;9.60;;
7162;SDS011;3623;47.098;15.446;2023-07-24T08:21:26;9.03;;;8.13;;
7162;SDS011;3623;47.098;15.446;2023-07-24T08:23:53;8.97;;;8.10;;
7162;SDS011;3623;47.098;15.446;2023-07-24T08:26:22;10.83;;;9.63;;
7162;SDS011;3623;47.098;15.446;2023-07-24T08:28:51;11.13;;;9.80;;
7162;SDS011;3623;47.098;15.446;2023-07-24T08:31:20;11.53;;;9.83;;
7162;SDS011;3623;47.098;15.446;2023-07-24T08:33:47;9.73;;;8.73;;
7162;SDS011;3623;47.098;15.446;2023-07-24T08:36:15;11.03;;;9.97;;
7162;SDS011;3623;47.098;15.446;2023-07-24T08:38:43;12.77;;;10.80;;
7162;SDS011;3623;47.098;15.446;2023-07-24T08:41:13;12.63;;;10.20;;
7162;SDS011;3623;47.098;15.446;2023-07-24T08:43:42;11.37;;;9.83;;
7162;SDS011;3623;47.098;15.446;2023-07-24T08:46:11;13.27;;;10.50;;
7162;SDS011;3623;47.098;15.446;2023-07-24T08:48:41;11.57;;;10.00;;
7162;SDS011;3623;47.098;15.446;2023-07-24T08:51:09;11.50;;;10.40;;
7162;SDS011;3623;47.098;15.446;2023-07-24T08:53:38;16.00;;;11.50;;
7162;SDS011;3623;47.098;15.446;2023-07-24T08:56:07;11.63;;;10.37;;
7162;SDS011;3623;47.098;15.446;2023-07-24T08:58:37;15.83;;;10.80;;
7162;SDS011;3623;47.098;15.446;2023-07-24T09:01:05;11.20;;;10.20;;
7162;SDS011;3623;47.098;15.446;2023-07-24T09:03:33;11.10;;;10.10;;
7162;SDS011;3623;47.098;15.446;2023-07-24T09:06:03;11.53;;;10.33;;
7162;SDS011;3623;47.098;15.446;2023-07-24T09:08:33;12.60;;;11.30;;
7162;SDS011;3623;47.098;15.446;2023-07-24T09:11:02;13.27;;;10.67;;
7162;SDS011;3623;47.098;15.446;2023-07-24T09:13:31;12.77;;;11.47;;
7162;SDS011;3623;47.098;15.446;2023-07-24T09:15:59;11.20;;;9.50;;
7162;SDS011;3623;47.098;15.446;2023-07-24T09:18:26;12.70;;;10.60;;
7162;SDS011;3623;47.098;15.446;2023-07-24T09:21:07;12.40;;;11.10;;
7162;SDS011;3623;47.098;15.446;2023-07-24T09:27:10;11.37;;;10.03;;
7162;SDS011;3623;47.098;15.446;2023-07-24T09:41:27;11.77;;;10.57;;
7162;SDS011;3623;47.098;15.446;2023-07-24T09:43:57;12.20;;;9.90;;
7162;SDS011;3623;47.098;15.446;2023-07-24T09:46:25;10.30;;;9.40;;
7162;SDS011;3623;47.098;15.446;2023-07-24T09:48:55;12.40;;;10.77;;
7162;SDS011;3623;47.098;15.446;2023-07-24T09:51:24;11.10;;;10.07;;
7162;SDS011;3623;47.098;15.446;2023-07-24T09:53:58;12.23;;;10.37;;
7162;SDS011;3623;47.098;15.446;2023-07-24T09:56:30;11.10;;;10.07;;
7162;SDS011;3623;47.098;15.446;2023-07-24T09:59:00;11.43;;;9.80;;
7162;SDS011;3623;47.098;15.446;2023-07-24T10:01:30;11.63;;;10.20;;
7162;SDS011;3623;47.098;15.446;2023-07-24T10:03:59;10.77;;;9.77;;
7162;SDS011;3623;47.098;15.446;2023-07-24T10:06:28;11.67;;;10.57;;
7162;SDS011;3623;47.098;15.446;2023-07-24T10:26:23;10.90;;;9.90;;
7162;SDS011;3623;47.098;15.446;2023-07-24T11:15:33;13.83;;;12.57;;
7162;SDS011;3623;47.098;15.446;2023-07-24T11:21:47;14.43;;;12.93;;
7162;SDS011;3623;47.098;15.446;2023-07-24T11:25:37;13.13;;;11.53;;
7162;SDS011;3623;47.098;15.446;2023-07-24T11:59:24;13.00;;;11.70;;
7162;SDS011;3623;47.098;15.446;2023-07-24T12:52:47;17.93;;;12.73;;
7162;SDS011;3623;47.098;15.446;2023-07-24T13:04:41;14.13;;;12.73;;
7162;SDS011;3623;47.098;15.446;2023-07-24T13:21:50;17.30;;;12.77;;
7162;SDS011;3623;47.098;15.446;2023-07-24T13:25:08;13.17;;;11.77;;
7162;SDS011;3623;47.098;15.446;2023-07-24T13:28:13;15.10;;;11.20;;
7162;SDS011;3623;47.098;15.446;2023-07-24T13:30:53;14.47;;;12.73;;
7162;SDS011;3623;47.098;15.446;2023-07-24T13:33:21;15.83;;;12.67;;
7162;SDS011;3623;47.098;15.446;2023-07-24T13:36:20;15.23;;;13.63;;
7162;SDS011;3623;47.098;15.446;2023-07-24T13:39:43;13.17;;;10.90;;
7162;SDS011;3623;47.098;15.446;2023-07-24T13:49:44;19.50;;;12.90;;
7162;SDS011;3623;47.098;15.446;2023-07-24T13:56:30;14.77;;;12.77;;
7162;SDS011;3623;47.098;15.446;2023-07-24T13:59:41;15.90;;;12.83;;
7162;SDS011;3623;47.098;15.446;2023-07-24T14:06:14;13.23;;;11.83;;
7162;SDS011;3623;47.098;15.446;2023-07-24T14:12:30;12.80;;;11.50;;
7162;SDS011;3623;47.098;15.446;2023-07-24T14:14:58;12.50;;;11.27;;
7162;SDS011;3623;47.098;15.446;2023-07-24T14:18:12;14.33;;;12.70;;
7162;SDS011;3623;47.098;15.446;2023-07-24T14:21:26;15.60;;;13.70;;
7162;SDS011;3623;47.098;15.446;2023-07-24T14:27:29;14.60;;;12.47;;
7162;SDS011;3623;47.098;15.446;2023-07-24T14:31:12;13.30;;;11.90;;
7162;SDS011;3623;47.098;15.446;2023-07-24T14:34:30;13.40;;;10.90;;
7162;SDS011;3623;47.098;15.446;2023-07-24T14:45:13;14.07;;;10.50;;
7162;SDS011;3623;47.098;15.446;2023-07-24T14:47:56;11.77;;;10.00;;
7162;SDS011;3623;47.098;15.446;2023-07-24T14:50:36;15.97;;;10.67;;
7162;SDS011;3623;47.098;15.446;2023-07-24T14:53:11;14.37;;;11.50;;
7162;SDS011;3623;47.098;15.446;2023-07-24T14:59:29;11.63;;;10.10;;
7162;SDS011;3623;47.098;15.446;2023-07-24T15:06:14;8.70;;;7.90;;
7162;SDS011;3623;47.098;15.446;2023-07-24T15:08:41;9.90;;;8.87;;
7162;SDS011;3623;47.098;15.446;2023-07-24T15:15:08;9.33;;;8.20;;
7162;SDS011;3623;47.098;15.446;2023-07-24T15:17:49;9.40;;;8.50;;
7162;SDS011;3623;47.098;15.446;2023-07-24T15:20:41;10.00;;;8.40;;
7162;SDS011;3623;47.098;15.446;2023-07-24T15:23:09;8.73;;;7.43;;
7162;SDS011;3623;47.098;15.446;2023-07-24T15:25:37;9.67;;;8.60;;
7162;SDS011;3623;47.098;15.446;2023-07-24T15:28:05;8.87;;;7.77;;
7162;SDS011;3623;47.098;15.446;2023-07-24T15:30:35;8.17;;;7.37;;
7162;SDS011;3623;47.098;15.446;2023-07-24T15:33:03;8.10;;;7.00;;
7162;SDS011;3623;47.098;15.446;2023-07-24T15:35:44;8.43;;;6.97;;
7162;SDS011;3623;47.098;15.446;2023-07-24T15:38:12;11.20;;;7.30;;
7162;SDS011;3623;47.098;15.446;2023-07-24T15:40:39;14.43;;;7.20;;
7162;SDS011;3623;47.098;15.446;2023-07-24T15:43:06;8.47;;;6.43;;
7162;SDS011;3623;47.098;15.446;2023-07-24T15:45:36;11.00;;;6.50;;
7162;SDS011;3623;47.098;15.446;2023-07-24T15:48:04;9.43;;;5.67;;
7162;SDS011;3623;47.098;15.446;2023-07-24T15:50:32;7.80;;;7.00;;
7162;SDS011;3623;47.098;15.446;2023-07-24T15:52:59;6.90;;;5.53;;
7162;SDS011;3623;47.098;15.446;2023-07-24T15:55:27;9.13;;;6.03;;
7162;SDS011;3623;47.098;15.446;2023-07-24T15:57:55;7.70;;;5.80;;
7162;SDS011;3623;47.098;15.446;2023-07-24T16:04:05;6.13;;;5.53;;
7162;SDS011;3623;47.098;15.446;2023-07-24T16:06:32;6.50;;;5.57;;
7162;SDS011;3623;47.098;15.446;2023-07-24T16:08:59;5.73;;;4.80;;
7162;SDS011;3623;47.098;15.446;2023-07-24T16:11:27;8.30;;;4.30;;
7162;SDS011;3623;47.098;15.446;2023-07-24T16:13:54;10.33;;;4.80;;
7162;SDS011;3623;47.098;15.446;2023-07-24T16:16:21;5.30;;;4.80;;
7162;SDS011;3623;47.098;15.446;2023-07-24T16:21:39;4.70;;;4.07;;
7162;SDS011;3623;47.098;15.446;2023-07-24T16:24:09;7.80;;;4.23;;
7162;SDS011;3623;47.098;15.446;2023-07-24T16:26:37;7.50;;;3.80;;
7162;SDS011;3623;47.098;15.446;2023-07-24T16:29:04;4.37;;;3.97;;
7162;SDS011;3623;47.098;15.446;2023-07-24T16:31:32;4.07;;;3.67;;
7162;SDS011;3623;47.098;15.446;2023-07-24T16:34:00;3.90;;;3.50;;
7162;SDS011;3623;47.098;15.446;2023-07-24T16:36:29;3.37;;;3.10;;
7162;SDS011;3623;47.098;15.446;2023-07-24T16:38:58;4.10;;;3.57;;
7162;SDS011;3623;47.098;15.446;2023-07-24T16:41:25;3.47;;;3.17;;
7162;SDS011;3623;47.098;15.446;2023-07-24T16:43:52;3.93;;;3.53;;
7162;SDS011;3623;47.098;15.446;2023-07-24T16:46:20;3.07;;;2.87;;
7162;SDS011;3623;47.098;15.446;2023-07-24T16:48:47;4.20;;;2.77;;
7162;SDS011;3623;47.098;15.446;2023-07-24T16:51:14;5.80;;;3.60;;
7162;SDS011;3623;47.098;15.446;2023-07-24T16:53:44;3.77;;;3.37;;
7162;SDS011;3623;47.098;15.446;2023-07-24T16:56:11;3.60;;;3.30;;
7162;SDS011;3623;47.098;15.446;2023-07-24T16:58:38;5.00;;;2.90;;
7162;SDS011;3623;47.098;15.446;2023-07-24T17:01:12;5.00;;;3.33;;
7162;SDS011;3623;47.098;15.446;2023-07-24T17:03:54;3.60;;;2.60;;
7162;SDS011;3623;47.098;15.446;2023-07-24T17:06:21;4.60;;;3.37;;
7162;SDS011;3623;47.098;15.446;2023-07-24T17:08:57;4.20;;;2.60;;
7162;SDS011;3623;47.098;15.446;2023-07-24T17:12:14;4.80;;;2.60;;
7162;SDS011;3623;47.098;15.446;2023-07-24T17:18:13;4.23;;;2.70;;
7162;SDS011;3623;47.098;15.446;2023-07-24T17:20:58;6.47;;;3.23;;
7162;SDS011;3623;47.098;15.446;2023-07-24T17:23:51;3.13;;;2.83;;
7162;SDS011;3623;47.098;15.446;2023-07-24T17:26:31;4.40;;;2.47;;
7162;SDS011;3623;47.098;15.446;2023-07-24T17:29:52;5.83;;;2.60;;
7162;SDS011;3623;47.098;15.446;2023-07-24T17:32:29;6.70;;;2.60;;
7162;SDS011;3623;47.098;15.446;2023-07-24T17:35:11;2.53;;;2.33;;
7162;SDS011;3623;47.098;15.446;2023-07-24T17:37:39;3.97;;;2.73;;
7162;SDS011;3623;47.098;15.446;2023-07-24T17:40:13;4.70;;;3.50;;
7162;SDS011;3623;47.098;15.446;2023-07-24T17:42:40;3.23;;;2.23;;
7162;SDS011;3623;47.098;15.446;2023-07-24T17:45:08;4.93;;;2.90;;
7162;SDS011;3623;47.098;15.446;2023-07-24T17:47:35;2.30;;;2.10;;
7162;SDS011;3623;47.098;15.446;2023-07-24T17:50:03;4.27;;;2.00;;
7162;SDS011;3623;47.098;15.446;2023-07-24T17:52:31;3.83;;;2.90;;
7162;SDS011;3623;47.098;15.446;2023-07-24T17:54:59;4.73;;;2.80;;
7162;SDS011;3623;47.098;15.446;2023-07-24T17:57:28;3.23;;;2.93;;
7162;SDS011;3623;47.098;15.446;2023-07-24T17:59:56;2.57;;;2.37;;
7162;SDS011;3623;47.098;15.446;2023-07-24T18:02:23;3.53;;;2.30;;
7162;SDS011;3623;47.098;15.446;2023-07-24T18:04:50;2.60;;;2.40;;
7162;SDS011;3623;47.098;15.446;2023-07-24T18:07:17;3.07;;;2.47;;
7162;SDS011;3623;47.098;15.446;2023-07-24T18:09:44;4.00;;;3.57;;
7162;SDS011;3623;47.098;15.446;2023-07-24T18:12:22;2.40;;;2.20;;
7162;SDS011;3623;47.098;15.446;2023-07-24T18:17:39;3.63;;;2.20;;
7162;SDS011;3623;47.098;15.446;2023-07-24T18:20:09;3.87;;;2.47;;
7162;SDS011;3623;47.098;15.446;2023-07-24T18:22:37;5.77;;;2.20;;
7162;SDS011;3623;47.098;15.446;2023-07-24T18:25:05;7.50;;;2.73;;
7162;SDS011;3623;47.098;15.446;2023-07-24T18:30:27;3.23;;;2.20;;
7162;SDS011;3623;47.098;15.446;2023-07-24T18:33:21;5.83;;;2.03;;
7162;SDS011;3623;47.098;15.446;2023-07-24T18:35:50;5.20;;;2.80;;
7162;SDS011;3623;47.098;15.446;2023-07-24T18:38:18;4.33;;;2.50;;
7162;SDS011;3623;47.098;15.446;2023-07-24T18:40:45;3.23;;;2.60;;
7162;SDS011;3623;47.098;15.446;2023-07-24T18:43:13;3.00;;;2.60;;
7162;SDS011;3623;47.098;15.446;2023-07-24T18:45:41;1.70;;;1.60;;
7162;SDS011;3623;47.098;15.446;2023-07-24T18:48:09;2.37;;;2.17;;
7162;SDS011;3623;47.098;15.446;2023-07-24T18:50:36;1.70;;;1.60;;
7162;SDS011;3623;47.098;15.446;2023-07-24T18:53:03;3.30;;;2.10;;
7162;SDS011;3623;47.098;15.446;2023-07-24T18:55:31;4.37;;;2.23;;
7162;SDS011;3623;47.098;15.446;2023-07-24T18:57:59;4.00;;;2.47;;
7162;SDS011;3623;47.098;15.446;2023-07-24T19:00:27;2.83;;;2.40;;
7162;SDS011;3623;47.098;15.446;2023-07-24T19:02:54;4.00;;;2.80;;
7162;SDS011;3623;47.098;15.446;2023-07-24T19:05:22;6.13;;;2.57;;
7162;SDS011;3623;47.098;15.446;2023-07-24T19:08:06;4.47;;;2.67;;
7162;SDS011;3623;47.098;15.446;2023-07-24T19:10:33;2.30;;;1.90;;
7162;SDS011;3623;47.098;15.446;2023-07-24T19:13:01;2.30;;;2.00;;
7162;SDS011;3623;47.098;15.446;2023-07-24T19:15:30;4.87;;;2.57;;
7162;SDS011;3623;47.098;15.446;2023-07-24T19:17:57;3.20;;;2.20;;
7162;SDS011;3623;47.098;15.446;2023-07-24T19:20:59;3.73;;;2.50;;
7162;SDS011;3623;47.098;15.446;2023-07-24T19:23:41;3.17;;;2.40;;
7162;SDS011;3623;47.098;15.446;2023-07-24T19:26:14;2.20;;;2.00;;
7162;SDS011;3623;47.098;15.446;2023-07-24T19:29:20;2.23;;;2.13;;
7162;SDS011;3623;47.098;15.446;2023-07-24T19:31:52;3.53;;;2.30;;
7162;SDS011;3623;47.098;15.446;2023-07-24T19:34:19;3.10;;;2.37;;
7162;SDS011;3623;47.098;15.446;2023-07-24T19:36:46;2.10;;;1.93;;
7162;SDS011;3623;47.098;15.446;2023-07-24T19:39:14;4.90;;;2.30;;
7162;SDS011;3623;47.098;15.446;2023-07-24T19:42:10;4.47;;;2.63;;
7162;SDS011;3623;47.098;15.446;2023-07-24T19:44:52;4.10;;;2.23;;